sensor_id;sensor_type;location;lat;lon;timestamp;pressure;altitude;pressure_sealevel;temperature;humidity
14882;BME280;7533;51.278;12.588;2023-03-24T00:02:56;99146.97;;;22.39;64.14
14882;BME280;7533;51.278;12.588;2023-03-24T00:08:03;99143.69;;;22.36;64.28
14882;BME280;7533;51.278;12.588;2023-03-24T00:13:07;99140.31;;;22.34;64.58
14882;BME280;7533;51.278;12.588;2023-03-24T00:18:10;99131.47;;;22.32;64.81
14882;BME280;7533;51.278;12.588;2023-03-24T00:23:14;99126.25;;;22.30;65.06
14882;BME280;7533;51.278;12.588;2023-03-24T00:28:17;99127.34;;;22.28;64.98
14882;BME280;7533;51.278;12.588;2023-03-24T00:33:20;99108.78;;;22.25;65.13
14882;BME280;7533;51.278;12.588;2023-03-24T00:38:26;99100.97;;;22.22;65.08
14882;BME280;7533;51.278;12.588;2023-03-24T00:43:29;99094.03;;;22.19;65.21
14882;BME280;7533;51.278;12.588;2023-03-24T00:48:32;99079.13;;;22.15;65.51
14882;BME280;7533;51.278;12.588;2023-03-24T00:53:36;99076.56;;;22.13;65.47
14882;BME280;7533;51.278;12.588;2023-03-24T00:58:44;99069.47;;;22.12;65.57
14882;BME280;7533;51.278;12.588;2023-03-24T01:03:47;99056.25;;;22.09;65.63
14882;BME280;7533;51.278;12.588;2023-03-24T01:08:53;99055.53;;;22.07;65.77
14882;BME280;7533;51.278;12.588;2023-03-24T01:13:56;99043.06;;;22.06;65.89
14882;BME280;7533;51.278;12.588;2023-03-24T01:18:59;99038.78;;;22.04;65.96
14882;BME280;7533;51.278;12.588;2023-03-24T01:24:04;99035.56;;;22.00;65.92
14882;BME280;7533;51.278;12.588;2023-03-24T01:29:08;99041.22;;;21.97;65.97
14882;BME280;7533;51.278;12.588;2023-03-24T01:34:11;99041.22;;;21.97;65.88
14882;BME280;7533;51.278;12.588;2023-03-24T01:39:15;99042.47;;;21.93;66.25
14882;BME280;7533;51.278;12.588;2023-03-24T01:44:37;99042.63;;;21.91;66.13
14882;BME280;7533;51.278;12.588;2023-03-24T01:49:43;99033.84;;;21.89;66.25
14882;BME280;7533;51.278;12.588;2023-03-24T01:54:53;99025.88;;;21.88;66.24
14882;BME280;7533;51.278;12.588;2023-03-24T02:00:00;99022.47;;;21.86;66.37
14882;BME280;7533;51.278;12.588;2023-03-24T02:05:14;99016.38;;;21.84;66.37
14882;BME280;7533;51.278;12.588;2023-03-24T02:10:22;99010.28;;;21.82;66.58
14882;BME280;7533;51.278;12.588;2023-03-24T02:15:28;99008.56;;;21.81;66.52
14882;BME280;7533;51.278;12.588;2023-03-24T02:21:01;99008.72;;;21.79;66.45
14882;BME280;7533;51.278;12.588;2023-03-24T02:26:33;99003.47;;;21.78;66.71
14882;BME280;7533;51.278;12.588;2023-03-24T02:32:02;98998.34;;;21.75;66.61
14882;BME280;7533;51.278;12.588;2023-03-24T02:37:47;98993.13;;;21.73;66.70
14882;BME280;7533;51.278;12.588;2023-03-24T02:43:15;98990.53;;;21.72;66.74
14882;BME280;7533;51.278;12.588;2023-03-24T02:48:28;98994.22;;;21.71;66.84
14882;BME280;7533;51.278;12.588;2023-03-24T02:53:40;98992.69;;;21.68;66.86
14882;BME280;7533;51.278;12.588;2023-03-24T02:59:00;98978.38;;;21.68;66.83
14882;BME280;7533;51.278;12.588;2023-03-24T03:04:10;98969.56;;;21.65;66.94
14882;BME280;7533;51.278;12.588;2023-03-24T03:09:16;98953.41;;;21.65;67.16
14882;BME280;7533;51.278;12.588;2023-03-24T03:14:27;98938.25;;;21.64;67.16
14882;BME280;7533;51.278;12.588;2023-03-24T03:19:36;98953.72;;;21.62;67.17
14882;BME280;7533;51.278;12.588;2023-03-24T03:24:41;98959.25;;;21.61;67.19
14882;BME280;7533;51.278;12.588;2023-03-24T03:29:53;98962.91;;;21.60;67.24
14882;BME280;7533;51.278;12.588;2023-03-24T03:35:01;98959.50;;;21.58;67.43
14882;BME280;7533;51.278;12.588;2023-03-24T03:40:12;98939.81;;;21.57;67.74
14882;BME280;7533;51.278;12.588;2023-03-24T03:45:22;98947.19;;;21.55;67.60
14882;BME280;7533;51.278;12.588;2023-03-24T03:50:25;98935.69;;;21.53;67.65
14882;BME280;7533;51.278;12.588;2023-03-24T03:55:30;98940.22;;;21.53;67.74
14882;BME280;7533;51.278;12.588;2023-03-24T04:00:36;98930.31;;;21.53;67.84
14882;BME280;7533;51.278;12.588;2023-03-24T04:06:11;98918.97;;;21.50;67.90
14882;BME280;7533;51.278;12.588;2023-03-24T04:11:27;98900.13;;;21.50;67.98
14882;BME280;7533;51.278;12.588;2023-03-24T04:16:52;98907.34;;;21.49;67.99
14882;BME280;7533;51.278;12.588;2023-03-24T04:22:09;98903.78;;;21.49;67.97
14882;BME280;7533;51.278;12.588;2023-03-24T04:27:22;98899.56;;;21.46;67.99
14882;BME280;7533;51.278;12.588;2023-03-24T04:32:34;98884.41;;;21.45;68.06
14882;BME280;7533;51.278;12.588;2023-03-24T04:37:44;98880.97;;;21.43;68.05
14882;BME280;7533;51.278;12.588;2023-03-24T04:42:54;98886.09;;;21.46;67.96
14882;BME280;7533;51.278;12.588;2023-03-24T04:48:05;98875.59;;;21.43;67.95
14882;BME280;7533;51.278;12.588;2023-03-24T04:53:29;98857.91;;;21.41;67.74
14882;BME280;7533;51.278;12.588;2023-03-24T04:58:33;98855.38;;;21.39;67.89
14882;BME280;7533;51.278;12.588;2023-03-24T05:03:37;98843.75;;;21.38;67.87
14882;BME280;7533;51.278;12.588;2023-03-24T05:08:40;98836.63;;;21.37;67.86
14882;BME280;7533;51.278;12.588;2023-03-24T05:13:44;98824.19;;;21.36;67.68
14882;BME280;7533;51.278;12.588;2023-03-24T05:18:49;98827.88;;;21.35;67.78
14882;BME280;7533;51.278;12.588;2023-03-24T05:23:53;98819.22;;;21.32;67.72
14882;BME280;7533;51.278;12.588;2023-03-24T05:28:56;98812.97;;;21.31;67.75
14882;BME280;7533;51.278;12.588;2023-03-24T05:34:00;98821.22;;;21.30;67.93
14882;BME280;7533;51.278;12.588;2023-03-24T05:39:04;98815.09;;;21.28;67.89
14882;BME280;7533;51.278;12.588;2023-03-24T05:44:17;98814.09;;;21.29;68.06
14882;BME280;7533;51.278;12.588;2023-03-24T05:49:34;98807.13;;;21.26;67.84
14882;BME280;7533;51.278;12.588;2023-03-24T05:54:38;98806.03;;;21.29;67.70
14882;BME280;7533;51.278;12.588;2023-03-24T05:59:51;98795.41;;;21.27;67.72
14882;BME280;7533;51.278;12.588;2023-03-24T06:05:16;98791.00;;;21.26;67.69
14882;BME280;7533;51.278;12.588;2023-03-24T06:10:20;98781.22;;;21.25;67.87
14882;BME280;7533;51.278;12.588;2023-03-24T06:15:29;98785.75;;;21.25;67.71
14882;BME280;7533;51.278;12.588;2023-03-24T06:20:49;98774.00;;;21.26;67.60
14882;BME280;7533;51.278;12.588;2023-03-24T06:25:58;98775.16;;;21.23;67.72
14882;BME280;7533;51.278;12.588;2023-03-24T06:31:04;98766.94;;;21.25;67.53
14882;BME280;7533;51.278;12.588;2023-03-24T06:36:12;98772.47;;;21.23;67.65
14882;BME280;7533;51.278;12.588;2023-03-24T06:41:17;98766.94;;;21.25;67.39
14882;BME280;7533;51.278;12.588;2023-03-24T06:46:23;98768.78;;;21.24;67.60
14882;BME280;7533;51.278;12.588;2023-03-24T06:51:28;98759.84;;;21.24;67.40
14882;BME280;7533;51.278;12.588;2023-03-24T06:56:31;98761.28;;;21.28;67.47
14882;BME280;7533;51.278;12.588;2023-03-24T07:01:35;98753.09;;;21.29;67.44
14882;BME280;7533;51.278;12.588;2023-03-24T07:06:54;98771.19;;;21.27;67.35
14882;BME280;7533;51.278;12.588;2023-03-24T07:12:20;98764.69;;;21.30;67.01
14882;BME280;7533;51.278;12.588;2023-03-24T07:17:23;98762.25;;;21.27;67.10
14882;BME280;7533;51.278;12.588;2023-03-24T07:22:41;98772.78;;;21.30;67.16
14882;BME280;7533;51.278;12.588;2023-03-24T07:27:58;98757.75;;;21.27;67.02
14882;BME280;7533;51.278;12.588;2023-03-24T07:33:02;98755.78;;;21.29;66.98
14882;BME280;7533;51.278;12.588;2023-03-24T07:38:08;98747.69;;;21.29;66.75
14882;BME280;7533;51.278;12.588;2023-03-24T07:43:11;98753.50;;;21.34;66.77
14882;BME280;7533;51.278;12.588;2023-03-24T07:48:26;98763.00;;;21.38;66.60
14882;BME280;7533;51.278;12.588;2023-03-24T07:53:30;98768.50;;;21.37;66.50
14882;BME280;7533;51.278;12.588;2023-03-24T07:58:34;98764.56;;;21.41;66.27
14882;BME280;7533;51.278;12.588;2023-03-24T08:03:52;98767.50;;;21.38;66.34
14882;BME280;7533;51.278;12.588;2023-03-24T08:09:23;98771.19;;;21.37;65.91
14882;BME280;7533;51.278;12.588;2023-03-24T08:14:25;98778.69;;;21.24;63.80
14882;BME280;7533;51.278;12.588;2023-03-24T08:19:28;98769.06;;;21.11;61.02
14882;BME280;7533;51.278;12.588;2023-03-24T08:24:35;98786.72;;;21.04;60.50
14882;BME280;7533;51.278;12.588;2023-03-24T08:29:37;98805.84;;;20.82;60.28
14882;BME280;7533;51.278;12.588;2023-03-24T08:34:40;98794.47;;;20.69;60.57
14882;BME280;7533;51.278;12.588;2023-03-24T08:39:45;98783.31;;;20.93;61.39
14882;BME280;7533;51.278;12.588;2023-03-24T08:44:48;98780.50;;;21.04;61.63
14882;BME280;7533;51.278;12.588;2023-03-24T08:49:53;98802.19;;;21.12;61.68
14882;BME280;7533;51.278;12.588;2023-03-24T08:54:59;98793.41;;;21.20;61.72
14882;BME280;7533;51.278;12.588;2023-03-24T09:00:03;98800.06;;;21.25;62.04
14882;BME280;7533;51.278;12.588;2023-03-24T09:05:14;98799.69;;;21.30;62.11
14882;BME280;7533;51.278;12.588;2023-03-24T09:10:20;98807.34;;;21.34;62.12
14882;BME280;7533;51.278;12.588;2023-03-24T09:15:24;98800.69;;;21.38;62.47
14882;BME280;7533;51.278;12.588;2023-03-24T09:20:27;98801.97;;;21.44;62.40
14882;BME280;7533;51.278;12.588;2023-03-24T09:25:31;98800.53;;;21.50;62.50
14882;BME280;7533;51.278;12.588;2023-03-24T09:30:34;98810.75;;;21.56;62.29
14882;BME280;7533;51.278;12.588;2023-03-24T09:35:37;98809.59;;;21.58;62.34
14882;BME280;7533;51.278;12.588;2023-03-24T09:40:41;98815.25;;;21.65;62.37
14882;BME280;7533;51.278;12.588;2023-03-24T09:45:48;98818.34;;;21.70;62.43
14882;BME280;7533;51.278;12.588;2023-03-24T09:50:55;98808.75;;;21.68;62.59
14882;BME280;7533;51.278;12.588;2023-03-24T09:56:10;98809.69;;;21.76;62.35
14882;BME280;7533;51.278;12.588;2023-03-24T10:01:14;98793.84;;;21.73;62.39
14882;BME280;7533;51.278;12.588;2023-03-24T10:06:20;98804.19;;;21.78;62.41
14882;BME280;7533;51.278;12.588;2023-03-24T10:11:35;98809.56;;;21.78;62.43
14882;BME280;7533;51.278;12.588;2023-03-24T10:16:44;98805.16;;;21.77;62.58
14882;BME280;7533;51.278;12.588;2023-03-24T10:21:55;98811.41;;;21.77;62.61
14882;BME280;7533;51.278;12.588;2023-03-24T10:27:05;98811.28;;;21.79;62.66
14882;BME280;7533;51.278;12.588;2023-03-24T10:32:16;98825.28;;;21.82;62.80
14882;BME280;7533;51.278;12.588;2023-03-24T10:37:22;98815.22;;;21.84;63.02
14882;BME280;7533;51.278;12.588;2023-03-24T10:42:32;98831.94;;;21.88;62.97
14882;BME280;7533;51.278;12.588;2023-03-24T10:47:35;98816.50;;;21.90;62.88
14882;BME280;7533;51.278;12.588;2023-03-24T10:52:42;98818.88;;;21.93;63.02
14882;BME280;7533;51.278;12.588;2023-03-24T10:57:49;98815.06;;;21.96;63.09
14882;BME280;7533;51.278;12.588;2023-03-24T11:02:56;98820.31;;;21.97;62.95
14882;BME280;7533;51.278;12.588;2023-03-24T11:08:13;98822.00;;;21.98;63.33
14882;BME280;7533;51.278;12.588;2023-03-24T11:13:29;98815.66;;;21.80;61.93
14882;BME280;7533;51.278;12.588;2023-03-24T11:18:33;98801.88;;;21.92;62.49
14882;BME280;7533;51.278;12.588;2023-03-24T11:23:38;98824.09;;;22.04;63.14
14882;BME280;7533;51.278;12.588;2023-03-24T11:28:46;98829.91;;;22.09;63.38
14882;BME280;7533;51.278;12.588;2023-03-24T11:33:56;98822.59;;;22.11;63.81
14882;BME280;7533;51.278;12.588;2023-03-24T11:39:02;98839.00;;;22.08;64.04
14882;BME280;7533;51.278;12.588;2023-03-24T11:44:15;98845.38;;;22.07;63.26
14882;BME280;7533;51.278;12.588;2023-03-24T11:49:24;98846.09;;;22.00;62.54
14882;BME280;7533;51.278;12.588;2023-03-24T11:54:32;98842.28;;;21.92;62.47
14882;BME280;7533;51.278;12.588;2023-03-24T11:59:41;98850.38;;;21.92;62.50
14882;BME280;7533;51.278;12.588;2023-03-24T12:05:03;98870.91;;;21.93;62.28
14882;BME280;7533;51.278;12.588;2023-03-24T12:10:21;98883.53;;;21.93;62.39
14882;BME280;7533;51.278;12.588;2023-03-24T12:15:35;98903.53;;;21.90;62.68
14882;BME280;7533;51.278;12.588;2023-03-24T12:20:48;98896.47;;;21.89;62.65
14882;BME280;7533;51.278;12.588;2023-03-24T12:26:14;98899.28;;;21.88;62.95
14882;BME280;7533;51.278;12.588;2023-03-24T12:31:42;98905.38;;;21.80;62.97
14882;BME280;7533;51.278;12.588;2023-03-24T12:36:56;98905.22;;;21.82;63.28
14882;BME280;7533;51.278;12.588;2023-03-24T12:42:06;98897.16;;;21.82;63.06
14882;BME280;7533;51.278;12.588;2023-03-24T12:47:23;98890.38;;;21.78;63.62
14882;BME280;7533;51.278;12.588;2023-03-24T12:52:49;98901.25;;;21.76;63.24
14882;BME280;7533;51.278;12.588;2023-03-24T12:58:15;98902.41;;;21.74;63.62
14882;BME280;7533;51.278;12.588;2023-03-24T13:03:27;98922.38;;;21.71;63.66
14882;BME280;7533;51.278;12.588;2023-03-24T13:08:32;98927.06;;;21.69;63.69
14882;BME280;7533;51.278;12.588;2023-03-24T13:13:41;98923.53;;;21.69;63.76
14882;BME280;7533;51.278;12.588;2023-03-24T13:18:50;98928.91;;;21.69;63.59
14882;BME280;7533;51.278;12.588;2023-03-24T13:23:56;98936.28;;;21.76;63.62
14882;BME280;7533;51.278;12.588;2023-03-24T13:29:13;98933.00;;;21.82;63.41
14882;BME280;7533;51.278;12.588;2023-03-24T13:34:26;98931.31;;;21.91;63.28
14882;BME280;7533;51.278;12.588;2023-03-24T13:39:33;98938.69;;;21.99;63.17
14882;BME280;7533;51.278;12.588;2023-03-24T13:44:39;98941.53;;;22.07;63.08
14882;BME280;7533;51.278;12.588;2023-03-24T13:49:53;98930.91;;;22.15;63.00
14882;BME280;7533;51.278;12.588;2023-03-24T13:54:59;98917.59;;;22.23;62.97
14882;BME280;7533;51.278;12.588;2023-03-24T14:00:16;98898.97;;;22.30;63.10
14882;BME280;7533;51.278;12.588;2023-03-24T14:05:42;98878.69;;;22.35;63.04
14882;BME280;7533;51.278;12.588;2023-03-24T14:10:59;98877.25;;;22.41;62.70
14882;BME280;7533;51.278;12.588;2023-03-24T14:16:39;98856.38;;;22.43;62.54
14882;BME280;7533;51.278;12.588;2023-03-24T14:21:50;98887.41;;;22.57;62.67
14882;BME280;7533;51.278;12.588;2023-03-24T14:26:54;98862.84;;;22.60;62.70
14882;BME280;7533;51.278;12.588;2023-03-24T14:32:00;98885.13;;;22.62;62.59
14882;BME280;7533;51.278;12.588;2023-03-24T14:37:22;98865.53;;;22.60;62.57
14882;BME280;7533;51.278;12.588;2023-03-24T14:47:56;98873.47;;;22.61;62.47
14882;BME280;7533;51.278;12.588;2023-03-24T14:53:02;98877.88;;;22.62;62.42
14882;BME280;7533;51.278;12.588;2023-03-24T14:58:17;98879.16;;;22.68;62.29
14882;BME280;7533;51.278;12.588;2023-03-24T15:03:29;98878.38;;;22.76;62.30
14882;BME280;7533;51.278;12.588;2023-03-24T15:08:43;98891.47;;;22.70;62.11
14882;BME280;7533;51.278;12.588;2023-03-24T15:13:48;98906.66;;;21.57;53.18
14882;BME280;7533;51.278;12.588;2023-03-24T15:18:53;98894.88;;;21.97;56.30
14882;BME280;7533;51.278;12.588;2023-03-24T15:24:15;98888.88;;;22.41;59.92
14882;BME280;7533;51.278;12.588;2023-03-24T15:29:24;98885.44;;;22.49;59.96
14882;BME280;7533;51.278;12.588;2023-03-24T15:34:28;98880.25;;;22.75;59.85
14882;BME280;7533;51.278;12.588;2023-03-24T15:39:37;98877.22;;;22.78;60.13
14882;BME280;7533;51.278;12.588;2023-03-24T15:44:42;98869.38;;;22.94;60.27
14882;BME280;7533;51.278;12.588;2023-03-24T15:49:49;98864.56;;;22.88;60.40
14882;BME280;7533;51.278;12.588;2023-03-24T15:54:55;98872.50;;;23.17;60.42
14882;BME280;7533;51.278;12.588;2023-03-24T16:00:06;98876.06;;;23.18;60.53
14882;BME280;7533;51.278;12.588;2023-03-24T16:05:19;98865.28;;;23.18;61.04
14882;BME280;7533;51.278;12.588;2023-03-24T16:10:31;98874.34;;;23.17;61.57
14882;BME280;7533;51.278;12.588;2023-03-24T16:15:34;98876.75;;;23.65;60.93
14882;BME280;7533;51.278;12.588;2023-03-24T16:20:37;98880.22;;;23.58;61.34
14882;BME280;7533;51.278;12.588;2023-03-24T16:25:41;98880.84;;;23.69;61.57
14882;BME280;7533;51.278;12.588;2023-03-24T16:30:45;98891.81;;;23.86;61.63
14882;BME280;7533;51.278;12.588;2023-03-24T16:35:51;98898.06;;;23.86;61.60
14882;BME280;7533;51.278;12.588;2023-03-24T16:40:56;98902.22;;;23.98;61.49
14882;BME280;7533;51.278;12.588;2023-03-24T16:45:59;98907.25;;;23.75;61.68
14882;BME280;7533;51.278;12.588;2023-03-24T16:51:07;98920.28;;;23.80;62.26
14882;BME280;7533;51.278;12.588;2023-03-24T16:56:14;98931.94;;;23.81;63.01
14882;BME280;7533;51.278;12.588;2023-03-24T17:01:19;98923.13;;;23.79;62.93
14882;BME280;7533;51.278;12.588;2023-03-24T17:06:30;98925.69;;;23.80;63.48
14882;BME280;7533;51.278;12.588;2023-03-24T17:11:36;98921.44;;;23.78;63.65
14882;BME280;7533;51.278;12.588;2023-03-24T17:16:41;98935.66;;;23.80;63.36
14882;BME280;7533;51.278;12.588;2023-03-24T17:21:48;98935.88;;;23.68;59.88
14882;BME280;7533;51.278;12.588;2023-03-24T17:26:53;98943.81;;;23.88;61.72
14882;BME280;7533;51.278;12.588;2023-03-24T17:31:56;98945.91;;;23.94;62.23
14882;BME280;7533;51.278;12.588;2023-03-24T17:36:58;98948.69;;;23.84;61.47
14882;BME280;7533;51.278;12.588;2023-03-24T17:42:03;98945.63;;;23.97;60.79
14882;BME280;7533;51.278;12.588;2023-03-24T17:47:06;98951.78;;;23.62;62.18
14882;BME280;7533;51.278;12.588;2023-03-24T17:52:09;98956.31;;;23.71;62.15
14882;BME280;7533;51.278;12.588;2023-03-24T17:57:13;98954.69;;;23.78;61.82
14882;BME280;7533;51.278;12.588;2023-03-24T18:02:16;98961.97;;;23.95;61.52
14882;BME280;7533;51.278;12.588;2023-03-24T18:07:19;98961.78;;;23.79;62.23
14882;BME280;7533;51.278;12.588;2023-03-24T18:12:23;98958.63;;;23.84;61.95
14882;BME280;7533;51.278;12.588;2023-03-24T18:17:27;98967.59;;;23.66;62.25
14882;BME280;7533;51.278;12.588;2023-03-24T18:22:29;98976.09;;;23.71;62.31
14882;BME280;7533;51.278;12.588;2023-03-24T18:27:34;98978.13;;;23.60;62.43
14882;BME280;7533;51.278;12.588;2023-03-24T18:32:38;98985.34;;;23.69;62.46
14882;BME280;7533;51.278;12.588;2023-03-24T18:37:41;98983.28;;;23.81;62.21
14882;BME280;7533;51.278;12.588;2023-03-24T18:42:46;98992.84;;;23.75;62.42
14882;BME280;7533;51.278;12.588;2023-03-24T18:47:49;98990.44;;;23.72;62.30
14882;BME280;7533;51.278;12.588;2023-03-24T18:52:51;98989.59;;;23.71;62.25
14882;BME280;7533;51.278;12.588;2023-03-24T18:57:56;98993.75;;;23.66;62.68
14882;BME280;7533;51.278;12.588;2023-03-24T19:02:58;98987.13;;;23.78;62.14
14882;BME280;7533;51.278;12.588;2023-03-24T19:08:01;98998.19;;;23.57;62.78
14882;BME280;7533;51.278;12.588;2023-03-24T19:13:09;98980.94;;;23.68;62.44
14882;BME280;7533;51.278;12.588;2023-03-24T19:18:13;98995.69;;;23.73;62.20
14882;BME280;7533;51.278;12.588;2023-03-24T19:23:16;98993.91;;;23.64;62.11
14882;BME280;7533;51.278;12.588;2023-03-24T19:28:21;99002.69;;;23.66;62.22
14882;BME280;7533;51.278;12.588;2023-03-24T19:33:24;99005.28;;;23.86;61.83
14882;BME280;7533;51.278;12.588;2023-03-24T19:38:27;99003.25;;;23.70;62.02
14882;BME280;7533;51.278;12.588;2023-03-24T19:43:32;99004.25;;;23.69;61.82
14882;BME280;7533;51.278;12.588;2023-03-24T19:48:36;99007.50;;;23.72;61.95
14882;BME280;7533;51.278;12.588;2023-03-24T19:53:39;99009.94;;;23.66;61.68
14882;BME280;7533;51.278;12.588;2023-03-24T19:58:43;99008.25;;;23.65;61.90
14882;BME280;7533;51.278;12.588;2023-03-24T20:03:46;98994.44;;;23.68;61.89
14882;BME280;7533;51.278;12.588;2023-03-24T20:08:49;98997.00;;;23.69;61.88
14882;BME280;7533;51.278;12.588;2023-03-24T20:13:53;98994.91;;;23.63;61.99
14882;BME280;7533;51.278;12.588;2023-03-24T20:18:56;98995.31;;;23.68;61.77
14882;BME280;7533;51.278;12.588;2023-03-24T20:23:59;99012.81;;;23.64;61.80
14882;BME280;7533;51.278;12.588;2023-03-24T20:29:05;99011.53;;;23.59;61.65
14882;BME280;7533;51.278;12.588;2023-03-24T20:34:09;99015.84;;;23.52;62.07
14882;BME280;7533;51.278;12.588;2023-03-24T20:39:12;99011.13;;;23.54;62.02
14882;BME280;7533;51.278;12.588;2023-03-24T20:44:16;99017.66;;;23.51;62.01
14882;BME280;7533;51.278;12.588;2023-03-24T20:49:19;99013.28;;;23.50;61.86
14882;BME280;7533;51.278;12.588;2023-03-24T20:54:22;99013.28;;;23.50;61.99
14882;BME280;7533;51.278;12.588;2023-03-24T20:59:26;99008.88;;;23.49;61.73
14882;BME280;7533;51.278;12.588;2023-03-24T21:04:29;99014.88;;;23.43;61.91
14882;BME280;7533;51.278;12.588;2023-03-24T21:09:32;99016.50;;;23.36;61.97
14882;BME280;7533;51.278;12.588;2023-03-24T21:14:36;99037.09;;;23.37;61.85
14882;BME280;7533;51.278;12.588;2023-03-24T21:19:39;99052.59;;;23.35;62.11
14882;BME280;7533;51.278;12.588;2023-03-24T21:24:47;99050.84;;;23.43;61.89
14882;BME280;7533;51.278;12.588;2023-03-24T21:29:51;99061.94;;;23.40;61.98
14882;BME280;7533;51.278;12.588;2023-03-24T21:34:55;99062.78;;;23.41;62.23
14882;BME280;7533;51.278;12.588;2023-03-24T21:39:59;99064.50;;;23.42;62.16
14882;BME280;7533;51.278;12.588;2023-03-24T21:45:05;99066.34;;;23.41;62.10
14882;BME280;7533;51.278;12.588;2023-03-24T21:50:09;99071.16;;;23.47;61.94
14882;BME280;7533;51.278;12.588;2023-03-24T21:55:13;99066.09;;;23.35;62.71
14882;BME280;7533;51.278;12.588;2023-03-24T22:00:19;99066.44;;;23.49;62.48
14882;BME280;7533;51.278;12.588;2023-03-24T22:05:24;99066.94;;;23.35;62.50
14882;BME280;7533;51.278;12.588;2023-03-24T22:10:28;99052.97;;;23.40;62.78
14882;BME280;7533;51.278;12.588;2023-03-24T22:15:36;99029.69;;;23.39;62.82
14882;BME280;7533;51.278;12.588;2023-03-24T22:20:39;99018.78;;;23.31;63.08
14882;BME280;7533;51.278;12.588;2023-03-24T22:25:42;99022.00;;;23.34;63.05
14882;BME280;7533;51.278;12.588;2023-03-24T22:30:46;99020.03;;;23.36;63.02
14882;BME280;7533;51.278;12.588;2023-03-24T22:35:53;99027.69;;;23.41;63.00
14882;BME280;7533;51.278;12.588;2023-03-24T22:40:56;99019.28;;;23.44;62.98
14882;BME280;7533;51.278;12.588;2023-03-24T22:46:01;99031.25;;;23.41;63.16
14882;BME280;7533;51.278;12.588;2023-03-24T22:51:04;99029.41;;;23.42;63.10
14882;BME280;7533;51.278;12.588;2023-03-24T22:56:08;99040.53;;;23.29;63.40
14882;BME280;7533;51.278;12.588;2023-03-24T23:01:12;99037.44;;;23.24;63.53
14882;BME280;7533;51.278;12.588;2023-03-24T23:06:15;99043.38;;;23.28;63.73
14882;BME280;7533;51.278;12.588;2023-03-24T23:11:17;99044.53;;;23.25;63.86
14882;BME280;7533;51.278;12.588;2023-03-24T23:16:21;99045.41;;;23.16;64.45
14882;BME280;7533;51.278;12.588;2023-03-24T23:21:25;99032.53;;;23.37;63.79
14882;BME280;7533;51.278;12.588;2023-03-24T23:26:28;99040.59;;;23.47;63.76
14882;BME280;7533;51.278;12.588;2023-03-24T23:31:32;99047.25;;;23.53;63.49
14882;BME280;7533;51.278;12.588;2023-03-24T23:36:36;99049.78;;;23.54;63.35
14882;BME280;7533;51.278;12.588;2023-03-24T23:41:45;99048.94;;;23.63;63.21
14882;BME280;7533;51.278;12.588;2023-03-24T23:46:49;99045.47;;;23.61;63.35
14882;BME280;7533;51.278;12.588;2023-03-24T23:51:52;99036.13;;;23.65;63.29
14882;BME280;7533;51.278;12.588;2023-03-24T23:56:55;99038.38;;;23.70;63.34
